Attica, IN (47918)

9:38 PM EDT on April 24, 2015 (GMT -0400)
Warren County, IN | | Change Station
CLOSE
Current Station
Personal Weather Station
Location: Attica, IN
Elevation: 615 ft
Nearby Weather Stations

Elev 615 ft 40.35 °N, 87.21 °W | Updated 3 minutes ago

Overcast
Overcast
53.3 °F
Feels Like 53.3 °F
N
0.0
Wind Variable Wind from ESE
Gusts 1.0 mph

Today
High -- | Low -- °F
--% Chance of Precip.
Yesterday
High -- | Low -- °F
Precip. -- in
6:58 AM 8:36 PM
Waxing Crescent, 41% visible
Pressure 29.90 in
Visibility 8.0 miles
Clouds Overcast 7000 ft
Dew Point 41 °F
Humidity 62%
Rainfall 0.00 in
Snow Depth Not available.
UV 0 out of 12
Pollen 10.00 out of 12
Air Quality Not available.
Flu Activity Local Activity
METAR KLAF 250054Z 09005KT 8SM -RA OVC070 12/M01 A2989 RMK AO2 RAB53 SLP125 P0000 T01171006

More Conditions Fewer Conditions

Pressure 29.90 in
Visibility 8.0 miles
Clouds Overcast 7000 ft
Dew Point 41 °F
Humidity 62%
Rainfall 0.00 in
Snow Depth Not available.
UV 0 out of 12
Pollen 10.00 out of 12
Air Quality Not available.
Flu Activity Local Activity
METAR KLAF 250054Z 09005KT 8SM -RA OVC070 12/M01 A2989 RMK AO2 RAB53 SLP125 P0000 T01171006

More Conditions Fewer Conditions

10-Day Weather Forecast

Almanac

Astronomy

Apr. 24, 2015 Rise Set
Actual Time
Civil Twilight
Nautical Twilight
Astronomical Twilight
Moon
Length of Visible Light
Length of Day
Tomorrow will be .
, % of the Moon is Illuminated

Today's Extremes

State Highs State Lows

Community

WunderPhotos

Upload Photos

1,816,551 photos uploaded!

WunderBlogs® & News

Nearby

Air Quality

  Air Quality AQ Index Pollutant
Not available.

Snow Depth

Station Depth Elevation

Earthquake Activity

City Distance Mag. Time & Date
Minimum magnitude displayed is 2.5.

Coastal Water Temperatures

Place Temperature

Stations

Nearby Weather Stations

Station Location Temp. Windchill Dew Point Humidity Wind Precip. Elev Updated Type